createdAt,value
2017-09-10T00:01:15.144Z,86.81
2017-09-10T00:03:42.768Z,86.81
2017-09-10T00:06:10.550Z,86.92
2017-09-10T00:08:38.142Z,86.89
2017-09-10T00:11:05.771Z,87.18
2017-09-10T00:13:33.358Z,87.49
2017-09-10T00:16:00.967Z,87.93
2017-09-10T00:18:28.634Z,88.42
2017-09-10T00:20:56.262Z,88.55
2017-09-10T00:23:23.885Z,88.53
2017-09-10T00:25:51.482Z,88.33
2017-09-10T00:28:19.131Z,87.89
2017-09-10T00:30:46.718Z,88.20
2017-09-10T00:33:14.393Z,88.41
2017-09-10T00:35:42.002Z,88.81
2017-09-10T00:38:09.706Z,88.89
2017-09-10T00:40:37.302Z,88.92
2017-09-10T00:43:04.933Z,88.70
2017-09-10T00:45:32.530Z,88.58
2017-09-10T00:48:00.144Z,88.36
2017-09-10T00:50:27.767Z,87.96
2017-09-10T00:52:55.387Z,87.94
2017-09-10T00:55:22.985Z,87.50
2017-09-10T00:57:50.649Z,87.32
2017-09-10T01:00:18.231Z,87.33
2017-09-10T01:02:45.855Z,87.17
2017-09-10T01:05:13.398Z,87.30
2017-09-10T01:07:41.067Z,87.75
2017-09-10T01:10:08.655Z,88.25
2017-09-10T01:12:36.326Z,88.31
2017-09-10T01:15:03.910Z,87.99
2017-09-10T01:17:31.522Z,87.98
2017-09-10T01:19:59.155Z,87.78
2017-09-10T01:22:26.786Z,87.72
2017-09-10T01:24:54.487Z,87.64
2017-09-10T01:27:22.074Z,87.74
2017-09-10T01:29:49.716Z,87.57
2017-09-10T01:32:17.316Z,87.65
2017-09-10T01:34:44.962Z,87.96
2017-09-10T01:37:12.561Z,88.37
2017-09-10T01:39:40.271Z,88.57
2017-09-10T01:42:07.859Z,88.44
2017-09-10T01:44:35.447Z,88.46
2017-09-10T01:47:03.184Z,88.54
2017-09-10T01:49:30.787Z,88.43
2017-09-10T01:51:58.419Z,88.66
2017-09-10T01:54:26.012Z,88.54
2017-09-10T01:56:53.654Z,88.71
2017-09-10T01:59:21.247Z,89.19
2017-09-10T02:01:48.832Z,89.43
2017-09-10T02:04:16.494Z,89.42
2017-09-10T02:06:44.074Z,89.46
2017-09-10T02:09:11.802Z,89.76
2017-09-10T02:11:39.405Z,90.14
2017-09-10T02:14:07.022Z,90.17
2017-09-10T02:16:34.636Z,90.14
2017-09-10T02:19:02.302Z,89.95
2017-09-10T02:21:29.936Z,89.61
2017-09-10T02:23:57.629Z,89.53
2017-09-10T02:26:25.258Z,89.67
2017-09-10T02:28:52.846Z,89.90
2017-09-10T02:31:20.494Z,90.03
2017-09-10T02:33:48.090Z,90.22
2017-09-10T02:36:15.726Z,90.40
2017-09-10T02:38:43.308Z,89.81
2017-09-10T02:41:10.958Z,89.09
2017-09-10T02:43:38.591Z,88.64
2017-09-10T02:46:10.058Z,88.95
2017-09-10T02:48:37.664Z,89.02
2017-09-10T02:51:05.266Z,89.21
2017-09-10T02:53:32.887Z,89.51
2017-09-10T02:56:00.479Z,89.81
2017-09-10T02:58:28.095Z,89.84
2017-09-10T03:00:55.694Z,89.78
2017-09-10T03:03:23.350Z,89.78
2017-09-10T03:05:50.930Z,89.89
2017-09-10T03:08:18.562Z,89.70
2017-09-10T03:10:46.167Z,89.13
2017-09-10T03:13:13.830Z,89.36
2017-09-10T03:15:41.423Z,89.53
2017-09-10T03:18:09.034Z,89.78
2017-09-10T03:20:36.656Z,89.97
2017-09-10T03:23:04.290Z,90.15
2017-09-10T03:25:31.903Z,90.49
2017-09-10T03:27:59.528Z,91.22
2017-09-10T03:30:27.155Z,92.05
2017-09-10T03:32:54.811Z,92.59
2017-09-10T03:35:22.452Z,92.88
2017-09-10T03:37:50.195Z,92.70
2017-09-10T03:40:17.800Z,92.15
2017-09-10T03:42:45.402Z,92.03
2017-09-10T03:45:13.034Z,91.43
2017-09-10T03:47:40.771Z,91.36
2017-09-10T03:50:08.357Z,91.20
2017-09-10T03:52:36.005Z,91.09
2017-09-10T03:55:03.633Z,91.01
2017-09-10T03:57:31.259Z,90.66
2017-09-10T03:59:58.909Z,90.19
2017-09-10T04:02:26.487Z,90.16
2017-09-10T04:04:54.118Z,90.31
2017-09-10T04:07:21.781Z,90.15
2017-09-10T04:09:49.446Z,89.90
2017-09-10T04:12:17.103Z,89.83
2017-09-10T04:14:44.711Z,89.88
2017-09-10T04:17:12.302Z,89.43
2017-09-10T04:19:39.947Z,89.29
2017-09-10T04:22:07.574Z,89.03
2017-09-10T04:24:35.157Z,89.08
2017-09-10T04:27:02.807Z,89.01
2017-09-10T04:29:30.419Z,88.52
2017-09-10T04:31:58.036Z,88.50
2017-09-10T04:34:25.679Z,88.93
2017-09-10T04:36:53.289Z,89.06
2017-09-10T04:39:20.895Z,89.46
2017-09-10T04:41:48.507Z,89.71
2017-09-10T04:44:16.138Z,89.99
2017-09-10T04:46:43.735Z,90.10
2017-09-10T04:49:11.383Z,90.30
2017-09-10T04:51:39.004Z,91.65
2017-09-10T04:54:06.644Z,92.36
2017-09-10T04:56:34.324Z,92.75
2017-09-10T04:59:01.990Z,93.35
2017-09-10T05:01:29.595Z,93.56
2017-09-10T05:03:57.343Z,93.61
2017-09-10T05:06:24.946Z,93.15
2017-09-10T05:08:52.579Z,93.08
2017-09-10T05:11:20.198Z,92.86
2017-09-10T05:13:47.874Z,92.65
2017-09-10T05:16:15.536Z,92.66
2017-09-10T05:18:43.160Z,92.22
2017-09-10T05:21:10.778Z,91.45
2017-09-10T05:23:38.452Z,91.30
2017-09-10T05:26:06.055Z,91.14
2017-09-10T05:28:33.666Z,91.26
2017-09-10T05:31:01.287Z,91.15
2017-09-10T05:33:28.998Z,90.88
2017-09-10T05:35:56.605Z,90.62
2017-09-10T05:38:24.259Z,90.52
2017-09-10T05:40:51.922Z,90.14
2017-09-10T05:43:19.518Z,90.02
2017-09-10T05:45:47.213Z,89.96
2017-09-10T05:48:14.808Z,90.26
2017-09-10T05:50:42.434Z,90.53
2017-09-10T05:53:10.049Z,90.64
2017-09-10T05:55:37.670Z,90.69
2017-09-10T05:58:05.283Z,90.38
2017-09-10T06:00:32.948Z,90.46
2017-09-10T06:03:00.587Z,90.51
2017-09-10T06:05:28.218Z,90.83
2017-09-10T06:07:55.843Z,91.22
2017-09-10T06:10:23.494Z,91.41
2017-09-10T06:12:51.179Z,91.54
2017-09-10T06:15:18.817Z,91.86
2017-09-10T06:17:46.430Z,92.04
2017-09-10T06:20:14.082Z,92.06
2017-09-10T06:22:41.687Z,92.17
2017-09-10T06:25:09.350Z,92.27
2017-09-10T06:27:36.955Z,92.83
2017-09-10T06:30:04.560Z,93.42
2017-09-10T06:32:32.283Z,93.77
2017-09-10T06:34:59.936Z,93.72
2017-09-10T06:37:27.542Z,93.50
2017-09-10T06:39:55.133Z,93.35
2017-09-10T06:42:22.779Z,93.09
2017-09-10T06:44:50.532Z,93.18
2017-09-10T06:47:18.143Z,93.32
2017-09-10T06:49:45.760Z,93.62
2017-09-10T06:52:13.430Z,93.71
2017-09-10T06:54:41.054Z,93.72
2017-09-10T06:57:08.670Z,93.86
2017-09-10T06:59:36.286Z,93.91
2017-09-10T07:02:03.978Z,93.84
2017-09-10T07:04:31.705Z,93.58
2017-09-10T07:06:59.347Z,93.63
2017-09-10T07:09:27.042Z,93.19
2017-09-10T07:11:54.655Z,93.31
2017-09-10T07:14:22.274Z,93.27
2017-09-10T07:16:49.947Z,91.82
2017-09-10T07:19:17.535Z,92.23
2017-09-10T07:21:45.139Z,92.44
2017-09-10T07:24:12.795Z,93.09
2017-09-10T07:26:40.442Z,92.98
2017-09-10T07:29:08.048Z,92.21
2017-09-10T07:31:35.685Z,91.70
2017-09-10T07:34:04.368Z,92.11
2017-09-10T07:36:32.082Z,92.80
2017-09-10T07:38:59.674Z,91.99
2017-09-10T07:41:27.326Z,91.39
2017-09-10T07:43:54.932Z,91.42
2017-09-10T07:46:22.562Z,91.55
2017-09-10T07:48:50.234Z,91.11
2017-09-10T07:51:17.822Z,91.65
2017-09-10T07:53:45.478Z,91.15
2017-09-10T07:56:13.106Z,87.84
2017-09-10T07:58:40.715Z,86.98
2017-09-10T08:01:08.370Z,86.84
2017-09-10T08:03:36.003Z,86.28
2017-09-10T08:06:03.630Z,86.57
2017-09-10T08:08:31.258Z,85.80
2017-09-10T08:10:58.854Z,85.54
2017-09-10T08:13:26.497Z,85.70
2017-09-10T08:15:54.130Z,85.75
2017-09-10T08:18:21.792Z,85.69
2017-09-10T08:20:49.403Z,84.16
2017-09-10T08:23:17.050Z,83.87
2017-09-10T08:25:44.683Z,83.57
2017-09-10T08:28:12.325Z,82.95
2017-09-10T08:30:39.943Z,82.12
2017-09-10T08:33:07.571Z,82.17
2017-09-10T08:35:35.176Z,81.86
2017-09-10T08:38:02.799Z,82.26
2017-09-10T08:40:30.443Z,82.09
2017-09-10T08:42:58.087Z,80.31
2017-09-10T08:45:25.746Z,81.06
2017-09-10T08:47:53.353Z,80.83
2017-09-10T08:50:20.955Z,80.13
2017-09-10T08:52:48.618Z,80.64
2017-09-10T08:55:16.242Z,79.70
2017-09-10T08:57:43.869Z,79.50
2017-09-10T09:00:11.533Z,79.49
2017-09-10T09:02:39.178Z,77.89
2017-09-10T09:05:06.795Z,77.21
2017-09-10T09:07:34.432Z,76.84
2017-09-10T09:10:02.002Z,75.96
2017-09-10T09:12:29.651Z,74.58
2017-09-10T09:14:57.259Z,75.27
2017-09-10T09:17:24.891Z,75.11
2017-09-10T09:19:52.511Z,75.59
2017-09-10T09:22:20.134Z,74.67
2017-09-10T09:24:47.875Z,74.29
2017-09-10T09:27:15.502Z,75.18
2017-09-10T09:29:43.102Z,75.43
2017-09-10T09:32:10.750Z,75.39
2017-09-10T09:34:38.342Z,73.47
2017-09-10T09:37:06.083Z,74.28
2017-09-10T09:39:33.683Z,74.22
2017-09-10T09:42:01.496Z,74.33
2017-09-10T09:44:29.119Z,74.02
2017-09-10T09:46:56.722Z,73.70
2017-09-10T09:49:24.346Z,72.14
2017-09-10T09:51:51.936Z,71.70
2017-09-10T09:54:19.558Z,71.20
2017-09-10T09:56:47.162Z,71.19
2017-09-10T09:59:14.785Z,71.37
2017-09-10T10:01:42.383Z,69.12
2017-09-10T10:04:10.011Z,69.13
2017-09-10T10:06:37.620Z,68.79
2017-09-10T10:09:05.287Z,67.68
2017-09-10T10:11:32.871Z,67.04
2017-09-10T10:14:00.547Z,67.06
2017-09-10T10:16:28.156Z,65.69
2017-09-10T10:18:55.792Z,65.72
2017-09-10T10:21:23.385Z,66.50
2017-09-10T10:23:51.018Z,65.48
2017-09-10T10:26:18.613Z,65.74
2017-09-10T10:28:46.394Z,64.82
2017-09-10T10:31:13.978Z,65.04
2017-09-10T10:33:41.620Z,65.49
2017-09-10T10:36:09.238Z,64.10
2017-09-10T10:38:36.897Z,64.57
2017-09-10T10:41:04.512Z,63.89
2017-09-10T10:43:32.161Z,63.72
2017-09-10T10:45:59.754Z,64.01
2017-09-10T10:48:27.394Z,62.58
2017-09-10T10:50:55.009Z,62.35
2017-09-10T10:53:22.631Z,61.46
2017-09-10T10:55:50.358Z,60.51
2017-09-10T10:58:18.018Z,60.30
2017-09-10T11:00:45.626Z,60.69
2017-09-10T11:03:13.272Z,59.60
2017-09-10T11:05:40.902Z,58.75
2017-09-10T11:08:08.587Z,57.87
2017-09-10T11:10:36.191Z,58.54
2017-09-10T11:13:03.861Z,58.46
2017-09-10T11:15:31.456Z,57.73
2017-09-10T11:17:59.135Z,58.91
2017-09-10T11:20:26.739Z,58.13
2017-09-10T11:22:54.378Z,57.08
2017-09-10T11:25:22.006Z,56.30
2017-09-10T11:27:49.626Z,54.39
2017-09-10T11:30:17.365Z,55.35
2017-09-10T11:32:44.969Z,54.69
2017-09-10T11:35:12.597Z,55.41
2017-09-10T11:37:40.224Z,55.09
2017-09-10T11:40:07.854Z,53.66
2017-09-10T11:42:35.507Z,54.41
2017-09-10T11:45:03.095Z,54.99
2017-09-10T11:47:30.735Z,53.95
2017-09-10T11:49:58.372Z,53.78
2017-09-10T11:52:25.974Z,54.21
2017-09-10T11:54:53.595Z,55.30
2017-09-10T11:57:21.204Z,55.81
2017-09-10T11:59:48.824Z,56.79
2017-09-10T12:02:16.408Z,55.93
2017-09-10T12:04:44.020Z,56.39
2017-09-10T12:07:11.667Z,57.25
2017-09-10T12:09:39.278Z,57.83
2017-09-10T12:12:06.875Z,57.45
2017-09-10T12:14:34.509Z,59.03
2017-09-10T12:17:02.116Z,59.58
2017-09-10T12:19:29.748Z,58.71
2017-09-10T12:21:57.352Z,57.19
2017-09-10T12:24:24.987Z,55.25
2017-09-10T12:26:52.590Z,56.15
2017-09-10T12:29:20.274Z,56.57
2017-09-10T12:31:47.858Z,55.26
2017-09-10T12:34:15.512Z,56.59
2017-09-10T12:36:43.106Z,56.68
2017-09-10T12:39:10.756Z,55.64
2017-09-10T12:41:38.383Z,54.19
2017-09-10T12:44:06.064Z,55.67
2017-09-10T12:46:33.700Z,56.20
2017-09-10T12:49:01.328Z,56.63
2017-09-10T12:51:28.937Z,56.87
2017-09-10T12:53:56.554Z,56.77
2017-09-10T12:56:24.160Z,57.87
2017-09-10T12:58:51.782Z,59.07
2017-09-10T13:01:19.467Z,58.42
2017-09-10T13:03:47.107Z,58.74
2017-09-10T13:06:14.692Z,58.25
2017-09-10T13:08:42.343Z,57.03
2017-09-10T13:11:09.929Z,54.99
2017-09-10T13:13:37.550Z,55.18
2017-09-10T13:16:05.229Z,54.85
2017-09-10T13:18:32.934Z,56.02
2017-09-10T13:21:00.558Z,55.97
2017-09-10T13:23:28.323Z,56.01
2017-09-10T13:25:55.950Z,55.71
2017-09-10T13:28:23.572Z,54.83
2017-09-10T13:30:51.174Z,55.17
2017-09-10T13:33:18.832Z,54.87
2017-09-10T13:35:46.443Z,54.36
2017-09-10T13:38:14.027Z,52.85
2017-09-10T13:40:41.650Z,49.67
2017-09-10T13:43:09.396Z,49.07
2017-09-10T13:45:37.030Z,48.67
2017-09-10T13:48:04.644Z,49.50
2017-09-10T13:50:32.276Z,51.60
2017-09-10T13:52:59.886Z,53.38
2017-09-10T13:55:27.520Z,55.40
2017-09-10T13:57:55.214Z,55.48
2017-09-10T14:00:22.874Z,54.92
2017-09-10T14:02:50.471Z,55.74
2017-09-10T14:05:18.166Z,55.94
2017-09-10T14:07:45.755Z,56.98
2017-09-10T14:10:13.374Z,57.44
2017-09-10T14:12:40.987Z,57.19
2017-09-10T14:15:08.617Z,56.31
2017-09-10T14:17:36.207Z,56.20
2017-09-10T14:20:04.003Z,56.44
2017-09-10T14:22:31.598Z,56.56
2017-09-10T14:24:59.239Z,57.43
2017-09-10T14:27:26.831Z,56.76
2017-09-10T14:29:54.451Z,55.64
2017-09-10T14:32:22.067Z,55.64
2017-09-10T14:34:49.699Z,54.62
2017-09-10T14:37:17.292Z,53.35
2017-09-10T14:39:44.908Z,51.74
2017-09-10T14:42:12.550Z,52.06
2017-09-10T14:44:40.162Z,50.43
2017-09-10T14:47:07.836Z,50.37
2017-09-10T14:49:35.487Z,51.88
2017-09-10T14:52:03.084Z,53.23
2017-09-10T14:54:30.714Z,54.60
2017-09-10T14:56:58.302Z,55.24
2017-09-10T14:59:25.939Z,54.75
2017-09-10T15:01:53.568Z,54.72
2017-09-10T15:04:21.178Z,54.40
2017-09-10T15:06:48.812Z,54.32
2017-09-10T15:09:16.498Z,54.03
2017-09-10T15:11:44.139Z,54.74
2017-09-10T15:14:11.759Z,54.50
2017-09-10T15:16:39.382Z,54.91
2017-09-10T15:19:07.008Z,54.20
2017-09-10T15:21:34.616Z,54.48
2017-09-10T15:24:02.226Z,54.45
2017-09-10T15:26:29.819Z,55.25
2017-09-10T15:28:57.474Z,55.42
2017-09-10T15:31:25.065Z,55.77
2017-09-10T15:33:52.691Z,54.96
2017-09-10T15:36:20.375Z,55.31
2017-09-10T15:38:48.011Z,55.93
2017-09-10T15:41:15.603Z,55.21
2017-09-10T15:43:43.412Z,55.07
2017-09-10T15:46:11.879Z,55.55
2017-09-10T15:48:39.531Z,54.98
2017-09-10T15:51:07.137Z,54.30
2017-09-10T15:53:34.791Z,54.63
2017-09-10T15:56:02.405Z,54.71
2017-09-10T15:58:30.155Z,54.41
2017-09-10T16:00:58.708Z,55.50
2017-09-10T16:03:26.378Z,55.60
2017-09-10T16:05:54.012Z,56.36
2017-09-10T16:08:21.674Z,56.24
2017-09-10T16:10:49.358Z,56.47
2017-09-10T16:13:17.017Z,57.08
2017-09-10T16:15:44.651Z,57.16
2017-09-10T16:18:12.487Z,57.02
2017-09-10T16:20:40.117Z,57.49
2017-09-10T16:23:07.751Z,56.33
2017-09-10T16:25:35.432Z,55.48
2017-09-10T16:28:03.204Z,54.58
2017-09-10T16:30:30.821Z,55.11
2017-09-10T16:32:58.481Z,55.42
2017-09-10T16:35:26.123Z,55.78
2017-09-10T16:37:53.810Z,56.63
2017-09-10T16:40:21.432Z,57.05
2017-09-10T16:42:49.212Z,57.79
2017-09-10T16:45:16.837Z,57.94
2017-09-10T16:47:44.512Z,58.31
2017-09-10T16:50:12.125Z,58.56
2017-09-10T16:52:39.818Z,58.54
2017-09-10T16:55:07.477Z,58.01
2017-09-10T16:57:35.106Z,58.28
2017-09-10T17:00:03.030Z,57.59
2017-09-10T17:02:30.661Z,58.01
2017-09-10T17:04:58.438Z,58.01
2017-09-10T17:07:26.067Z,57.68
2017-09-10T17:09:53.750Z,57.86
2017-09-10T17:12:21.353Z,57.51
2017-09-10T17:14:49.080Z,57.93
2017-09-10T17:17:16.715Z,57.81
2017-09-10T17:19:44.388Z,57.60
2017-09-10T17:22:12.017Z,57.06
2017-09-10T17:24:39.672Z,56.84
2017-09-10T17:27:09.170Z,57.26
2017-09-10T17:29:36.997Z,56.97
2017-09-10T17:32:04.633Z,57.01
2017-09-10T17:34:32.257Z,57.68
2017-09-10T17:36:59.925Z,57.79
2017-09-10T17:39:27.705Z,58.15
2017-09-10T17:41:55.357Z,58.16
2017-09-10T17:44:23.012Z,58.50
2017-09-10T17:46:50.733Z,58.99
2017-09-10T17:49:18.384Z,59.08
2017-09-10T17:51:46.047Z,59.47
2017-09-10T17:54:13.672Z,59.99
2017-09-10T17:56:41.336Z,60.16
2017-09-10T17:59:08.982Z,60.52
2017-09-10T18:01:36.648Z,60.83
2017-09-10T18:04:04.268Z,60.76
2017-09-10T18:06:31.973Z,60.80
2017-09-10T18:08:59.628Z,60.55
2017-09-10T18:11:27.389Z,60.61
2017-09-10T18:13:55.009Z,61.12
2017-09-10T18:16:22.674Z,61.50
2017-09-10T18:18:50.288Z,61.42
2017-09-10T18:21:18.402Z,61.74
2017-09-10T18:23:46.114Z,62.07
2017-09-10T18:26:13.772Z,62.12
2017-09-10T18:28:41.365Z,62.08
2017-09-10T18:31:09.038Z,62.16
2017-09-10T18:33:36.726Z,62.09
2017-09-10T18:36:04.399Z,62.25
2017-09-10T18:38:32.039Z,62.36
2017-09-10T18:40:59.796Z,62.39
2017-09-10T18:43:27.548Z,62.76
2017-09-10T18:45:55.495Z,62.92
2017-09-10T18:48:23.288Z,63.30
2017-09-10T18:50:50.904Z,63.35
2017-09-10T18:53:18.576Z,63.88
2017-09-10T18:55:46.206Z,63.82
2017-09-10T18:58:13.920Z,63.99
2017-09-10T19:00:41.557Z,63.95
2017-09-10T19:03:09.321Z,64.07
2017-09-10T19:05:36.972Z,64.32
2017-09-10T19:08:04.650Z,64.27
2017-09-10T19:10:32.320Z,64.65
2017-09-10T19:12:59.964Z,64.75
2017-09-10T19:15:27.627Z,65.23
2017-09-10T19:17:56.132Z,65.74
2017-09-10T19:20:23.800Z,65.96
2017-09-10T19:22:51.846Z,66.26
2017-09-10T19:25:19.490Z,66.51
2017-09-10T19:27:47.136Z,66.84
2017-09-10T19:30:14.977Z,67.16
2017-09-10T19:32:42.635Z,67.69
2017-09-10T19:35:10.286Z,67.81
2017-09-10T19:37:37.910Z,68.08
2017-09-10T19:40:05.609Z,68.05
2017-09-10T19:42:33.244Z,68.43
2017-09-10T19:45:00.909Z,68.39
2017-09-10T19:47:28.562Z,68.75
2017-09-10T19:49:56.259Z,68.96
2017-09-10T19:52:24.837Z,68.39
2017-09-10T19:54:52.484Z,68.69
2017-09-10T19:57:20.160Z,68.29
2017-09-10T19:59:47.889Z,68.44
2017-09-10T20:02:15.567Z,68.49
2017-09-10T20:04:43.905Z,68.57
2017-09-10T20:07:11.580Z,68.75
2017-09-10T20:09:39.208Z,68.84
2017-09-10T20:12:06.907Z,69.10
2017-09-10T20:14:34.524Z,69.15
2017-09-10T20:17:02.214Z,69.16
2017-09-10T20:19:29.885Z,69.14
2017-09-10T20:21:58.010Z,69.30
2017-09-10T20:24:25.731Z,69.09
2017-09-10T20:26:53.407Z,69.00
2017-09-10T20:29:21.273Z,68.90
2017-09-10T20:31:48.919Z,68.95
2017-09-10T20:34:16.609Z,69.24
2017-09-10T20:36:44.275Z,69.40
2017-09-10T20:39:11.919Z,69.05
2017-09-10T20:41:39.579Z,69.11
2017-09-10T20:44:07.344Z,69.22
2017-09-10T20:46:35.014Z,69.62
2017-09-10T20:49:02.695Z,69.37
2017-09-10T20:51:30.340Z,69.46
2017-09-10T20:53:57.964Z,69.51
2017-09-10T20:56:25.645Z,69.29
2017-09-10T20:58:53.282Z,69.45
2017-09-10T21:01:20.959Z,69.57
2017-09-10T21:03:48.630Z,69.45
2017-09-10T21:06:16.268Z,69.54
2017-09-10T21:08:43.910Z,69.47
2017-09-10T21:11:11.536Z,69.40
2017-09-10T21:13:39.376Z,69.56
2017-09-10T21:16:07.439Z,69.46
2017-09-10T21:18:35.081Z,69.75
2017-09-10T21:21:02.754Z,69.58
2017-09-10T21:23:30.445Z,69.72
2017-09-10T21:25:58.229Z,69.76
2017-09-10T21:28:25.825Z,69.85
2017-09-10T21:30:53.551Z,69.85
2017-09-10T21:33:21.181Z,70.30
2017-09-10T21:35:49.075Z,70.02
2017-09-10T21:38:16.693Z,70.11
2017-09-10T21:40:44.489Z,70.04
2017-09-10T21:43:12.123Z,70.37
2017-09-10T21:45:39.841Z,70.61
2017-09-10T21:48:07.511Z,70.70
2017-09-10T21:50:35.160Z,70.80
2017-09-10T21:53:02.797Z,71.08
2017-09-10T21:55:30.461Z,71.06
2017-09-10T21:57:58.098Z,71.05
2017-09-10T22:00:26.539Z,71.14
2017-09-10T22:02:54.188Z,71.53
2017-09-10T22:05:21.831Z,72.03
2017-09-10T22:07:51.341Z,72.26
2017-09-10T22:10:19.967Z,72.62
2017-09-10T22:12:47.580Z,72.81
2017-09-10T22:15:16.284Z,72.98
2017-09-10T22:17:43.914Z,72.90
2017-09-10T22:20:11.607Z,72.76
2017-09-10T22:22:39.225Z,72.42
2017-09-10T22:25:06.909Z,72.44
2017-09-10T22:27:34.545Z,72.18
2017-09-10T22:30:02.203Z,72.26
2017-09-10T22:32:30.324Z,72.41
2017-09-10T22:34:58.076Z,72.53
2017-09-10T22:37:25.711Z,72.55
2017-09-10T22:39:53.502Z,72.77
2017-09-10T22:42:21.120Z,74.07
2017-09-10T22:44:48.774Z,75.30
2017-09-10T22:47:16.559Z,75.78
2017-09-10T22:49:44.729Z,75.65
2017-09-10T22:52:13.149Z,76.20
2017-09-10T22:54:40.802Z,77.10
2017-09-10T22:57:08.427Z,78.58
2017-09-10T22:59:36.067Z,77.48
2017-09-10T23:02:03.700Z,77.16
2017-09-10T23:04:31.320Z,77.29
2017-09-10T23:06:58.991Z,77.50
2017-09-10T23:09:26.637Z,77.56
2017-09-10T23:11:54.505Z,77.19
2017-09-10T23:14:22.108Z,78.00
2017-09-10T23:16:49.707Z,77.19
2017-09-10T23:19:17.378Z,77.16
2017-09-10T23:21:45.004Z,77.93
2017-09-10T23:24:13.364Z,78.40
2017-09-10T23:26:40.988Z,78.25
2017-09-10T23:29:08.607Z,78.42
2017-09-10T23:31:36.253Z,78.61
2017-09-10T23:34:03.865Z,79.17
2017-09-10T23:36:31.497Z,79.62
2017-09-10T23:38:59.105Z,79.88
2017-09-10T23:41:26.795Z,80.22
2017-09-10T23:43:54.477Z,79.75
2017-09-10T23:46:22.109Z,80.00
2017-09-10T23:48:50.143Z,79.85
2017-09-10T23:51:17.841Z,78.90
2017-09-10T23:53:45.478Z,79.08
2017-09-10T23:56:13.115Z,78.18
2017-09-10T23:58:40.732Z,78.03
